sensor_id;sensor_type;location;lat;lon;timestamp;P1;durP1;ratioP1;P2;durP2;ratioP2
36829;SDS011;22767;47.328;9.640;2022-10-26T00:01:50;6.38;;;2.42;;
36829;SDS011;22767;47.328;9.640;2022-10-26T00:04:36;7.05;;;2.20;;
36829;SDS011;22767;47.328;9.640;2022-10-26T00:07:22;8.32;;;2.55;;
36829;SDS011;22767;47.328;9.640;2022-10-26T00:10:09;3.95;;;2.10;;
36829;SDS011;22767;47.328;9.640;2022-10-26T00:12:55;7.53;;;2.10;;
36829;SDS011;22767;47.328;9.640;2022-10-26T00:15:41;3.40;;;1.80;;
36829;SDS011;22767;47.328;9.640;2022-10-26T00:18:28;5.15;;;1.50;;
36829;SDS011;22767;47.328;9.640;2022-10-26T00:21:14;4.32;;;1.40;;
36829;SDS011;22767;47.328;9.640;2022-10-26T00:24:01;4.60;;;0.80;;
36829;SDS011;22767;47.328;9.640;2022-10-26T00:26:47;1.70;;;0.75;;
36829;SDS011;22767;47.328;9.640;2022-10-26T00:29:34;0.98;;;0.65;;
36829;SDS011;22767;47.328;9.640;2022-10-26T00:32:20;3.95;;;0.60;;
36829;SDS011;22767;47.328;9.640;2022-10-26T00:35:06;2.15;;;0.75;;
36829;SDS011;22767;47.328;9.640;2022-10-26T00:37:53;2.30;;;0.60;;
36829;SDS011;22767;47.328;9.640;2022-10-26T00:40:40;1.67;;;1.02;;
36829;SDS011;22767;47.328;9.640;2022-10-26T00:46:33;2.22;;;0.63;;
36829;SDS011;22767;47.328;9.640;2022-10-26T00:49:20;1.52;;;0.65;;
36829;SDS011;22767;47.328;9.640;2022-10-26T00:52:07;2.67;;;0.50;;
36829;SDS011;22767;47.328;9.640;2022-10-26T00:54:54;2.72;;;0.52;;
36829;SDS011;22767;47.328;9.640;2022-10-26T00:57:40;3.03;;;0.52;;
36829;SDS011;22767;47.328;9.640;2022-10-26T01:00:27;4.63;;;0.60;;
36829;SDS011;22767;47.328;9.640;2022-10-26T01:03:13;4.70;;;0.90;;
36829;SDS011;22767;47.328;9.640;2022-10-26T01:06:00;3.33;;;0.60;;
36829;SDS011;22767;47.328;9.640;2022-10-26T01:08:47;2.67;;;0.60;;
36829;SDS011;22767;47.328;9.640;2022-10-26T01:11:34;5.18;;;0.47;;
36829;SDS011;22767;47.328;9.640;2022-10-26T01:14:21;0.80;;;0.55;;
36829;SDS011;22767;47.328;9.640;2022-10-26T01:23:15;3.13;;;0.50;;
36829;SDS011;22767;47.328;9.640;2022-10-26T01:26:12;4.70;;;0.68;;
36829;SDS011;22767;47.328;9.640;2022-10-26T01:31:54;5.32;;;0.60;;
36829;SDS011;22767;47.328;9.640;2022-10-26T01:34:47;1.90;;;0.65;;
36829;SDS011;22767;47.328;9.640;2022-10-26T01:37:41;4.28;;;0.60;;
36829;SDS011;22767;47.328;9.640;2022-10-26T01:40:33;1.27;;;0.65;;
36829;SDS011;22767;47.328;9.640;2022-10-26T01:43:20;1.00;;;0.47;;
36829;SDS011;22767;47.328;9.640;2022-10-26T01:46:07;0.77;;;0.38;;
36829;SDS011;22767;47.328;9.640;2022-10-26T01:48:56;1.33;;;0.60;;
36829;SDS011;22767;47.328;9.640;2022-10-26T01:51:43;3.15;;;0.52;;
36829;SDS011;22767;47.328;9.640;2022-10-26T01:54:34;1.92;;;0.65;;
36829;SDS011;22767;47.328;9.640;2022-10-26T01:57:21;3.40;;;0.75;;
36829;SDS011;22767;47.328;9.640;2022-10-26T02:00:08;1.25;;;0.77;;
36829;SDS011;22767;47.328;9.640;2022-10-26T02:06:03;1.95;;;0.40;;
36829;SDS011;22767;47.328;9.640;2022-10-26T02:14:28;5.25;;;0.88;;
36829;SDS011;22767;47.328;9.640;2022-10-26T02:17:22;1.10;;;0.50;;
36829;SDS011;22767;47.328;9.640;2022-10-26T02:20:34;0.28;;;0.28;;
36829;SDS011;22767;47.328;9.640;2022-10-26T02:23:19;1.45;;;0.47;;
36829;SDS011;22767;47.328;9.640;2022-10-26T02:26:08;2.83;;;0.50;;
36829;SDS011;22767;47.328;9.640;2022-10-26T02:28:56;3.05;;;0.50;;
36829;SDS011;22767;47.328;9.640;2022-10-26T02:31:45;2.10;;;0.60;;
36829;SDS011;22767;47.328;9.640;2022-10-26T02:34:33;2.50;;;0.50;;
36829;SDS011;22767;47.328;9.640;2022-10-26T02:37:21;0.60;;;0.50;;
36829;SDS011;22767;47.328;9.640;2022-10-26T02:40:10;2.05;;;0.45;;
36829;SDS011;22767;47.328;9.640;2022-10-26T02:42:59;1.13;;;0.43;;
36829;SDS011;22767;47.328;9.640;2022-10-26T02:45:48;4.00;;;0.55;;
36829;SDS011;22767;47.328;9.640;2022-10-26T02:48:36;1.48;;;0.60;;
36829;SDS011;22767;47.328;9.640;2022-10-26T02:54:18;0.88;;;0.45;;
36829;SDS011;22767;47.328;9.640;2022-10-26T02:57:30;3.05;;;0.60;;
36829;SDS011;22767;47.328;9.640;2022-10-26T03:00:15;1.77;;;0.50;;
36829;SDS011;22767;47.328;9.640;2022-10-26T03:03:02;1.00;;;0.40;;
36829;SDS011;22767;47.328;9.640;2022-10-26T03:05:49;1.55;;;0.50;;
36829;SDS011;22767;47.328;9.640;2022-10-26T03:08:36;0.65;;;0.35;;
36829;SDS011;22767;47.328;9.640;2022-10-26T03:11:22;1.15;;;0.60;;
36829;SDS011;22767;47.328;9.640;2022-10-26T03:14:08;2.15;;;0.95;;
36829;SDS011;22767;47.328;9.640;2022-10-26T03:16:55;2.00;;;0.57;;
36829;SDS011;22767;47.328;9.640;2022-10-26T03:19:41;1.42;;;0.40;;
36829;SDS011;22767;47.328;9.640;2022-10-26T03:22:27;0.95;;;0.55;;
36829;SDS011;22767;47.328;9.640;2022-10-26T03:25:14;2.10;;;0.60;;
36829;SDS011;22767;47.328;9.640;2022-10-26T03:28:01;1.63;;;0.80;;
36829;SDS011;22767;47.328;9.640;2022-10-26T03:30:48;2.28;;;0.50;;
36829;SDS011;22767;47.328;9.640;2022-10-26T03:33:35;1.05;;;0.60;;
36829;SDS011;22767;47.328;9.640;2022-10-26T03:36:21;2.72;;;0.60;;
36829;SDS011;22767;47.328;9.640;2022-10-26T03:39:08;3.13;;;0.90;;
36829;SDS011;22767;47.328;9.640;2022-10-26T03:41:54;3.72;;;0.90;;
36829;SDS011;22767;47.328;9.640;2022-10-26T03:44:40;1.58;;;1.00;;
36829;SDS011;22767;47.328;9.640;2022-10-26T03:47:27;1.20;;;0.73;;
36829;SDS011;22767;47.328;9.640;2022-10-26T03:50:14;1.92;;;1.15;;
36829;SDS011;22767;47.328;9.640;2022-10-26T03:53:01;3.08;;;1.00;;
36829;SDS011;22767;47.328;9.640;2022-10-26T03:55:47;2.08;;;0.90;;
36829;SDS011;22767;47.328;9.640;2022-10-26T03:58:34;1.52;;;1.10;;
36829;SDS011;22767;47.328;9.640;2022-10-26T04:01:20;5.85;;;1.30;;
36829;SDS011;22767;47.328;9.640;2022-10-26T04:04:07;3.33;;;1.77;;
36829;SDS011;22767;47.328;9.640;2022-10-26T04:06:53;2.33;;;1.35;;
36829;SDS011;22767;47.328;9.640;2022-10-26T04:09:40;2.72;;;1.80;;
36829;SDS011;22767;47.328;9.640;2022-10-26T04:12:26;5.47;;;2.20;;
36829;SDS011;22767;47.328;9.640;2022-10-26T04:15:13;3.95;;;2.40;;
36829;SDS011;22767;47.328;9.640;2022-10-26T04:18:00;3.92;;;2.08;;
36829;SDS011;22767;47.328;9.640;2022-10-26T04:20:47;3.42;;;2.08;;
36829;SDS011;22767;47.328;9.640;2022-10-26T04:23:33;4.90;;;2.00;;
36829;SDS011;22767;47.328;9.640;2022-10-26T04:26:20;6.13;;;2.83;;
36829;SDS011;22767;47.328;9.640;2022-10-26T04:29:06;3.58;;;2.05;;
36829;SDS011;22767;47.328;9.640;2022-10-26T04:31:53;3.22;;;2.53;;
36829;SDS011;22767;47.328;9.640;2022-10-26T04:34:39;3.88;;;2.10;;
36829;SDS011;22767;47.328;9.640;2022-10-26T04:37:26;3.25;;;2.90;;
36829;SDS011;22767;47.328;9.640;2022-10-26T04:40:12;7.85;;;2.45;;
36829;SDS011;22767;47.328;9.640;2022-10-26T04:42:59;7.22;;;1.98;;
36829;SDS011;22767;47.328;9.640;2022-10-26T04:45:45;4.00;;;2.22;;
36829;SDS011;22767;47.328;9.640;2022-10-26T04:48:32;5.93;;;1.83;;
36829;SDS011;22767;47.328;9.640;2022-10-26T04:51:18;3.22;;;1.60;;
36829;SDS011;22767;47.328;9.640;2022-10-26T04:54:05;2.03;;;1.13;;
36829;SDS011;22767;47.328;9.640;2022-10-26T04:56:51;7.90;;;2.33;;
36829;SDS011;22767;47.328;9.640;2022-10-26T04:59:37;4.22;;;1.42;;
36829;SDS011;22767;47.328;9.640;2022-10-26T05:02:24;4.95;;;1.20;;
36829;SDS011;22767;47.328;9.640;2022-10-26T05:05:10;7.53;;;1.98;;
36829;SDS011;22767;47.328;9.640;2022-10-26T05:07:56;5.78;;;1.00;;
36829;SDS011;22767;47.328;9.640;2022-10-26T05:10:47;4.93;;;1.27;;
36829;SDS011;22767;47.328;9.640;2022-10-26T05:13:34;6.07;;;2.30;;
36829;SDS011;22767;47.328;9.640;2022-10-26T05:16:20;3.08;;;1.50;;
36829;SDS011;22767;47.328;9.640;2022-10-26T05:19:07;8.52;;;1.23;;
36829;SDS011;22767;47.328;9.640;2022-10-26T05:21:53;2.15;;;1.02;;
36829;SDS011;22767;47.328;9.640;2022-10-26T05:24:39;4.65;;;1.13;;
36829;SDS011;22767;47.328;9.640;2022-10-26T05:27:26;4.78;;;1.15;;
36829;SDS011;22767;47.328;9.640;2022-10-26T05:30:12;2.28;;;1.00;;
36829;SDS011;22767;47.328;9.640;2022-10-26T05:32:59;3.45;;;1.10;;
36829;SDS011;22767;47.328;9.640;2022-10-26T05:35:52;1.67;;;0.98;;
36829;SDS011;22767;47.328;9.640;2022-10-26T05:38:38;2.33;;;1.08;;
36829;SDS011;22767;47.328;9.640;2022-10-26T05:41:25;4.90;;;1.02;;
36829;SDS011;22767;47.328;9.640;2022-10-26T05:44:11;2.15;;;1.00;;
36829;SDS011;22767;47.328;9.640;2022-10-26T05:46:58;1.48;;;0.90;;
36829;SDS011;22767;47.328;9.640;2022-10-26T05:49:44;3.53;;;1.10;;
36829;SDS011;22767;47.328;9.640;2022-10-26T05:52:36;2.55;;;0.80;;
36829;SDS011;22767;47.328;9.640;2022-10-26T05:55:23;2.38;;;0.70;;
36829;SDS011;22767;47.328;9.640;2022-10-26T05:58:11;1.75;;;0.75;;
36829;SDS011;22767;47.328;9.640;2022-10-26T06:01:02;2.28;;;0.68;;
36829;SDS011;22767;47.328;9.640;2022-10-26T06:06:39;1.48;;;0.80;;
36829;SDS011;22767;47.328;9.640;2022-10-26T06:09:27;2.35;;;0.75;;
36829;SDS011;22767;47.328;9.640;2022-10-26T06:12:14;1.27;;;0.70;;
36829;SDS011;22767;47.328;9.640;2022-10-26T06:15:00;1.00;;;0.70;;
36829;SDS011;22767;47.328;9.640;2022-10-26T06:24:00;2.20;;;0.77;;
36829;SDS011;22767;47.328;9.640;2022-10-26T06:26:54;4.32;;;1.08;;
36829;SDS011;22767;47.328;9.640;2022-10-26T06:32:39;3.00;;;0.70;;
36829;SDS011;22767;47.328;9.640;2022-10-26T06:35:29;2.13;;;0.80;;
36829;SDS011;22767;47.328;9.640;2022-10-26T06:38:19;1.70;;;1.10;;
36829;SDS011;22767;47.328;9.640;2022-10-26T06:41:06;2.13;;;0.82;;
36829;SDS011;22767;47.328;9.640;2022-10-26T06:43:54;3.13;;;0.90;;
36829;SDS011;22767;47.328;9.640;2022-10-26T06:46:47;3.72;;;1.40;;
36829;SDS011;22767;47.328;9.640;2022-10-26T06:49:36;4.28;;;1.02;;
36829;SDS011;22767;47.328;9.640;2022-10-26T06:52:34;3.40;;;0.95;;
36829;SDS011;22767;47.328;9.640;2022-10-26T06:55:22;1.92;;;0.90;;
36829;SDS011;22767;47.328;9.640;2022-10-26T06:58:10;8.15;;;1.30;;
36829;SDS011;22767;47.328;9.640;2022-10-26T07:00:59;2.08;;;0.93;;
36829;SDS011;22767;47.328;9.640;2022-10-26T07:03:46;1.77;;;0.85;;
36829;SDS011;22767;47.328;9.640;2022-10-26T07:06:32;3.25;;;0.85;;
36829;SDS011;22767;47.328;9.640;2022-10-26T07:09:18;2.30;;;0.82;;
36829;SDS011;22767;47.328;9.640;2022-10-26T07:12:05;2.15;;;0.80;;
36829;SDS011;22767;47.328;9.640;2022-10-26T07:14:51;4.75;;;0.88;;
36829;SDS011;22767;47.328;9.640;2022-10-26T07:17:45;5.13;;;0.90;;
36829;SDS011;22767;47.328;9.640;2022-10-26T07:20:39;3.97;;;1.05;;
36829;SDS011;22767;47.328;9.640;2022-10-26T07:23:26;1.98;;;0.85;;
36829;SDS011;22767;47.328;9.640;2022-10-26T07:26:12;2.45;;;1.10;;
36829;SDS011;22767;47.328;9.640;2022-10-26T07:28:59;1.17;;;0.80;;
36829;SDS011;22767;47.328;9.640;2022-10-26T07:31:45;2.67;;;0.90;;
36829;SDS011;22767;47.328;9.640;2022-10-26T07:34:32;2.25;;;0.80;;
36829;SDS011;22767;47.328;9.640;2022-10-26T07:37:18;1.52;;;0.80;;
36829;SDS011;22767;47.328;9.640;2022-10-26T07:40:05;3.67;;;0.93;;
36829;SDS011;22767;47.328;9.640;2022-10-26T07:42:51;2.50;;;0.80;;
36829;SDS011;22767;47.328;9.640;2022-10-26T07:45:38;1.50;;;0.75;;
36829;SDS011;22767;47.328;9.640;2022-10-26T07:48:24;2.50;;;1.05;;
36829;SDS011;22767;47.328;9.640;2022-10-26T07:51:11;1.30;;;0.70;;
36829;SDS011;22767;47.328;9.640;2022-10-26T07:53:57;2.95;;;0.95;;
36829;SDS011;22767;47.328;9.640;2022-10-26T07:56:44;3.70;;;1.20;;
36829;SDS011;22767;47.328;9.640;2022-10-26T07:59:30;1.20;;;0.75;;
36829;SDS011;22767;47.328;9.640;2022-10-26T08:02:17;1.75;;;0.90;;
36829;SDS011;22767;47.328;9.640;2022-10-26T08:05:03;3.60;;;1.10;;
36829;SDS011;22767;47.328;9.640;2022-10-26T08:07:50;4.40;;;1.00;;
36829;SDS011;22767;47.328;9.640;2022-10-26T08:10:36;1.35;;;1.10;;
36829;SDS011;22767;47.328;9.640;2022-10-26T08:13:23;1.27;;;1.00;;
36829;SDS011;22767;47.328;9.640;2022-10-26T08:16:09;2.08;;;0.85;;
36829;SDS011;22767;47.328;9.640;2022-10-26T08:18:56;2.83;;;1.05;;
36829;SDS011;22767;47.328;9.640;2022-10-26T08:21:43;3.50;;;1.00;;
36829;SDS011;22767;47.328;9.640;2022-10-26T08:24:29;1.60;;;0.80;;
36829;SDS011;22767;47.328;9.640;2022-10-26T08:27:16;2.28;;;0.88;;
36829;SDS011;22767;47.328;9.640;2022-10-26T08:30:02;2.35;;;1.17;;
36829;SDS011;22767;47.328;9.640;2022-10-26T08:32:56;2.22;;;1.08;;
36829;SDS011;22767;47.328;9.640;2022-10-26T08:35:42;1.80;;;1.10;;
36829;SDS011;22767;47.328;9.640;2022-10-26T08:38:29;3.92;;;0.90;;
36829;SDS011;22767;47.328;9.640;2022-10-26T08:41:23;4.63;;;1.30;;
36829;SDS011;22767;47.328;9.640;2022-10-26T08:49:57;2.15;;;0.80;;
36829;SDS011;22767;47.328;9.640;2022-10-26T08:52:49;3.88;;;0.95;;
36829;SDS011;22767;47.328;9.640;2022-10-26T08:55:41;3.23;;;0.90;;
36829;SDS011;22767;47.328;9.640;2022-10-26T08:58:47;1.88;;;0.82;;
36829;SDS011;22767;47.328;9.640;2022-10-26T09:01:36;2.42;;;0.93;;
36829;SDS011;22767;47.328;9.640;2022-10-26T09:04:26;4.03;;;1.13;;
36829;SDS011;22767;47.328;9.640;2022-10-26T09:07:17;3.40;;;1.10;;
36829;SDS011;22767;47.328;9.640;2022-10-26T09:10:12;2.85;;;1.10;;
36829;SDS011;22767;47.328;9.640;2022-10-26T09:15:51;2.83;;;1.20;;
36829;SDS011;22767;47.328;9.640;2022-10-26T09:24:32;4.00;;;1.20;;
36829;SDS011;22767;47.328;9.640;2022-10-26T09:30:12;2.15;;;0.98;;
36829;SDS011;22767;47.328;9.640;2022-10-26T09:33:01;4.15;;;1.15;;
36829;SDS011;22767;47.328;9.640;2022-10-26T09:36:02;3.00;;;1.10;;
36829;SDS011;22767;47.328;9.640;2022-10-26T09:44:33;1.83;;;1.10;;
36829;SDS011;22767;47.328;9.640;2022-10-26T09:47:40;2.45;;;1.50;;
36829;SDS011;22767;47.328;9.640;2022-10-26T09:50:29;5.70;;;1.20;;
36829;SDS011;22767;47.328;9.640;2022-10-26T09:53:17;0.90;;;0.75;;
36829;SDS011;22767;47.328;9.640;2022-10-26T09:56:07;1.63;;;1.02;;
36829;SDS011;22767;47.328;9.640;2022-10-26T09:58:55;2.00;;;1.10;;
36829;SDS011;22767;47.328;9.640;2022-10-26T10:01:46;3.63;;;1.35;;
36829;SDS011;22767;47.328;9.640;2022-10-26T10:04:32;2.47;;;1.08;;
36829;SDS011;22767;47.328;9.640;2022-10-26T10:07:19;2.75;;;1.35;;
36829;SDS011;22767;47.328;9.640;2022-10-26T10:10:14;4.68;;;1.00;;
36829;SDS011;22767;47.328;9.640;2022-10-26T10:13:02;2.28;;;1.13;;
36829;SDS011;22767;47.328;9.640;2022-10-26T10:16:07;1.63;;;1.20;;
36829;SDS011;22767;47.328;9.640;2022-10-26T10:18:58;5.20;;;1.30;;
36829;SDS011;22767;47.328;9.640;2022-10-26T10:21:48;2.08;;;1.20;;
36829;SDS011;22767;47.328;9.640;2022-10-26T10:24:36;1.52;;;0.95;;
36829;SDS011;22767;47.328;9.640;2022-10-26T10:27:23;3.58;;;1.23;;
36829;SDS011;22767;47.328;9.640;2022-10-26T10:30:19;2.67;;;1.10;;
36829;SDS011;22767;47.328;9.640;2022-10-26T10:33:09;3.08;;;1.60;;
36829;SDS011;22767;47.328;9.640;2022-10-26T10:35:56;2.53;;;1.15;;
36829;SDS011;22767;47.328;9.640;2022-10-26T10:38:43;6.57;;;1.60;;
36829;SDS011;22767;47.328;9.640;2022-10-26T10:41:31;2.60;;;1.20;;
36829;SDS011;22767;47.328;9.640;2022-10-26T10:44:24;4.07;;;1.58;;
36829;SDS011;22767;47.328;9.640;2022-10-26T10:47:21;1.23;;;1.10;;
36829;SDS011;22767;47.328;9.640;2022-10-26T10:53:14;1.88;;;1.15;;
36829;SDS011;22767;47.328;9.640;2022-10-26T10:56:17;4.50;;;1.45;;
36829;SDS011;22767;47.328;9.640;2022-10-26T11:08:07;3.20;;;1.30;;
36829;SDS011;22767;47.328;9.640;2022-10-26T11:14:04;1.75;;;1.00;;
36829;SDS011;22767;47.328;9.640;2022-10-26T11:16:55;2.60;;;1.17;;
36829;SDS011;22767;47.328;9.640;2022-10-26T11:25:48;2.17;;;1.13;;
36829;SDS011;22767;47.328;9.640;2022-10-26T11:31:37;2.42;;;0.85;;
36829;SDS011;22767;47.328;9.640;2022-10-26T11:34:38;1.90;;;0.98;;
36829;SDS011;22767;47.328;9.640;2022-10-26T11:40:33;1.52;;;0.90;;
36829;SDS011;22767;47.328;9.640;2022-10-26T11:43:36;2.75;;;1.30;;
36829;SDS011;22767;47.328;9.640;2022-10-26T11:46:25;1.83;;;1.20;;
36829;SDS011;22767;47.328;9.640;2022-10-26T11:49:19;3.10;;;0.80;;
36829;SDS011;22767;47.328;9.640;2022-10-26T11:52:41;2.92;;;1.23;;
36829;SDS011;22767;47.328;9.640;2022-10-26T11:55:19;2.65;;;1.02;;
36829;SDS011;22767;47.328;9.640;2022-10-26T11:58:07;2.20;;;1.20;;
36829;SDS011;22767;47.328;9.640;2022-10-26T12:00:56;1.08;;;0.90;;
36829;SDS011;22767;47.328;9.640;2022-10-26T12:03:48;2.25;;;0.93;;
36829;SDS011;22767;47.328;9.640;2022-10-26T12:06:37;2.30;;;1.20;;
36829;SDS011;22767;47.328;9.640;2022-10-26T12:09:25;5.03;;;1.00;;
36829;SDS011;22767;47.328;9.640;2022-10-26T12:15:27;2.72;;;1.40;;
36829;SDS011;22767;47.328;9.640;2022-10-26T12:18:20;5.80;;;1.35;;
36829;SDS011;22767;47.328;9.640;2022-10-26T12:21:10;3.03;;;1.20;;
36829;SDS011;22767;47.328;9.640;2022-10-26T12:26:50;2.58;;;1.40;;
36829;SDS011;22767;47.328;9.640;2022-10-26T12:29:38;8.30;;;1.23;;
36829;SDS011;22767;47.328;9.640;2022-10-26T12:41:21;1.88;;;1.02;;
36829;SDS011;22767;47.328;9.640;2022-10-26T12:44:30;3.40;;;1.00;;
36829;SDS011;22767;47.328;9.640;2022-10-26T12:50:23;3.40;;;1.15;;
36829;SDS011;22767;47.328;9.640;2022-10-26T12:53:09;3.67;;;1.40;;
36829;SDS011;22767;47.328;9.640;2022-10-26T12:56:04;2.72;;;1.00;;
36829;SDS011;22767;47.328;9.640;2022-10-26T12:58:59;2.72;;;1.33;;
36829;SDS011;22767;47.328;9.640;2022-10-26T13:02:01;2.88;;;1.33;;
36829;SDS011;22767;47.328;9.640;2022-10-26T13:08:02;4.38;;;1.30;;
36829;SDS011;22767;47.328;9.640;2022-10-26T13:11:03;3.97;;;1.40;;
36829;SDS011;22767;47.328;9.640;2022-10-26T13:13:56;3.28;;;1.40;;
36829;SDS011;22767;47.328;9.640;2022-10-26T13:16:44;2.13;;;1.02;;
36829;SDS011;22767;47.328;9.640;2022-10-26T13:19:41;2.53;;;1.23;;
36829;SDS011;22767;47.328;9.640;2022-10-26T13:22:28;3.97;;;1.38;;
36829;SDS011;22767;47.328;9.640;2022-10-26T13:25:20;4.60;;;1.40;;
36829;SDS011;22767;47.328;9.640;2022-10-26T13:31:23;3.22;;;1.05;;
36829;SDS011;22767;47.328;9.640;2022-10-26T13:34:27;3.53;;;1.23;;
36829;SDS011;22767;47.328;9.640;2022-10-26T13:37:20;2.13;;;1.02;;
36829;SDS011;22767;47.328;9.640;2022-10-26T13:40:09;2.53;;;1.50;;
36829;SDS011;22767;47.328;9.640;2022-10-26T13:42:57;3.30;;;1.20;;
36829;SDS011;22767;47.328;9.640;2022-10-26T13:51:24;3.42;;;1.17;;
36829;SDS011;22767;47.328;9.640;2022-10-26T13:54:19;2.63;;;1.20;;
36829;SDS011;22767;47.328;9.640;2022-10-26T13:57:16;4.57;;;1.30;;
36829;SDS011;22767;47.328;9.640;2022-10-26T14:00:23;2.80;;;1.30;;
36829;SDS011;22767;47.328;9.640;2022-10-26T14:03:13;3.20;;;1.23;;
36829;SDS011;22767;47.328;9.640;2022-10-26T14:05:59;4.60;;;1.40;;
36829;SDS011;22767;47.328;9.640;2022-10-26T14:08:49;2.00;;;1.30;;
36829;SDS011;22767;47.328;9.640;2022-10-26T14:11:42;5.55;;;1.40;;
36829;SDS011;22767;47.328;9.640;2022-10-26T14:14:33;1.98;;;1.20;;
36829;SDS011;22767;47.328;9.640;2022-10-26T14:17:21;4.10;;;1.20;;
36829;SDS011;22767;47.328;9.640;2022-10-26T14:20:16;2.17;;;1.13;;
36829;SDS011;22767;47.328;9.640;2022-10-26T14:23:03;2.78;;;1.30;;
36829;SDS011;22767;47.328;9.640;2022-10-26T14:25:53;4.50;;;1.20;;
36829;SDS011;22767;47.328;9.640;2022-10-26T14:28:42;7.93;;;1.30;;
36829;SDS011;22767;47.328;9.640;2022-10-26T14:31:31;2.38;;;1.20;;
36829;SDS011;22767;47.328;9.640;2022-10-26T14:34:19;3.92;;;1.05;;
36829;SDS011;22767;47.328;9.640;2022-10-26T14:37:06;6.63;;;1.40;;
36829;SDS011;22767;47.328;9.640;2022-10-26T14:39:52;4.40;;;1.35;;
36829;SDS011;22767;47.328;9.640;2022-10-26T14:42:39;7.70;;;1.70;;
36829;SDS011;22767;47.328;9.640;2022-10-26T14:45:29;3.85;;;1.10;;
36829;SDS011;22767;47.328;9.640;2022-10-26T14:48:30;2.67;;;1.30;;
36829;SDS011;22767;47.328;9.640;2022-10-26T14:51:17;1.88;;;1.05;;
36829;SDS011;22767;47.328;9.640;2022-10-26T14:54:16;1.23;;;0.95;;
36829;SDS011;22767;47.328;9.640;2022-10-26T14:57:04;2.42;;;1.25;;
36829;SDS011;22767;47.328;9.640;2022-10-26T14:59:59;9.05;;;1.50;;
36829;SDS011;22767;47.328;9.640;2022-10-26T15:02:53;5.38;;;0.95;;
36829;SDS011;22767;47.328;9.640;2022-10-26T15:05:40;4.88;;;1.40;;
36829;SDS011;22767;47.328;9.640;2022-10-26T15:08:47;4.90;;;1.50;;
36829;SDS011;22767;47.328;9.640;2022-10-26T15:11:34;4.05;;;1.13;;
36829;SDS011;22767;47.328;9.640;2022-10-26T15:14:20;3.20;;;1.10;;
36829;SDS011;22767;47.328;9.640;2022-10-26T15:17:12;1.95;;;1.10;;
36829;SDS011;22767;47.328;9.640;2022-10-26T15:20:04;3.20;;;1.30;;
36829;SDS011;22767;47.328;9.640;2022-10-26T15:22:52;3.00;;;1.50;;
36829;SDS011;22767;47.328;9.640;2022-10-26T15:25:39;3.10;;;1.17;;
36829;SDS011;22767;47.328;9.640;2022-10-26T15:31:24;2.50;;;1.17;;
36829;SDS011;22767;47.328;9.640;2022-10-26T15:34:13;4.32;;;1.20;;
36829;SDS011;22767;47.328;9.640;2022-10-26T15:36:59;3.70;;;1.30;;
36829;SDS011;22767;47.328;9.640;2022-10-26T15:39:46;3.30;;;1.13;;
36829;SDS011;22767;47.328;9.640;2022-10-26T15:42:36;3.83;;;1.45;;
36829;SDS011;22767;47.328;9.640;2022-10-26T15:45:23;1.95;;;1.15;;
36829;SDS011;22767;47.328;9.640;2022-10-26T15:48:32;4.15;;;1.50;;
36829;SDS011;22767;47.328;9.640;2022-10-26T15:51:18;4.20;;;1.60;;
36829;SDS011;22767;47.328;9.640;2022-10-26T15:54:05;4.57;;;1.17;;
36829;SDS011;22767;47.328;9.640;2022-10-26T15:56:51;5.30;;;1.45;;
36829;SDS011;22767;47.328;9.640;2022-10-26T15:59:38;5.38;;;1.40;;
36829;SDS011;22767;47.328;9.640;2022-10-26T16:02:24;7.95;;;1.77;;
36829;SDS011;22767;47.328;9.640;2022-10-26T16:05:12;2.90;;;1.15;;
36829;SDS011;22767;47.328;9.640;2022-10-26T16:08:00;3.55;;;1.20;;
36829;SDS011;22767;47.328;9.640;2022-10-26T16:10:46;5.60;;;2.05;;
36829;SDS011;22767;47.328;9.640;2022-10-26T16:13:35;3.90;;;1.73;;
36829;SDS011;22767;47.328;9.640;2022-10-26T16:16:22;3.85;;;1.90;;
36829;SDS011;22767;47.328;9.640;2022-10-26T16:19:08;7.55;;;1.48;;
36829;SDS011;22767;47.328;9.640;2022-10-26T16:21:55;2.38;;;1.08;;
36829;SDS011;22767;47.328;9.640;2022-10-26T16:24:42;2.83;;;1.42;;
36829;SDS011;22767;47.328;9.640;2022-10-26T16:27:28;4.05;;;1.80;;
36829;SDS011;22767;47.328;9.640;2022-10-26T16:30:15;3.20;;;1.60;;
36829;SDS011;22767;47.328;9.640;2022-10-26T16:33:02;2.92;;;1.50;;
36829;SDS011;22767;47.328;9.640;2022-10-26T16:35:53;4.75;;;1.63;;
36829;SDS011;22767;47.328;9.640;2022-10-26T16:38:40;4.83;;;1.70;;
36829;SDS011;22767;47.328;9.640;2022-10-26T16:41:26;6.38;;;1.65;;
36829;SDS011;22767;47.328;9.640;2022-10-26T16:44:13;3.65;;;1.70;;
36829;SDS011;22767;47.328;9.640;2022-10-26T16:46:59;3.78;;;1.70;;
36829;SDS011;22767;47.328;9.640;2022-10-26T16:49:46;6.15;;;1.80;;
36829;SDS011;22767;47.328;9.640;2022-10-26T16:52:33;8.32;;;1.95;;
36829;SDS011;22767;47.328;9.640;2022-10-26T16:55:20;7.22;;;1.50;;
36829;SDS011;22767;47.328;9.640;2022-10-26T16:58:09;7.35;;;2.20;;
36829;SDS011;22767;47.328;9.640;2022-10-26T17:00:55;7.53;;;2.13;;
36829;SDS011;22767;47.328;9.640;2022-10-26T17:03:42;5.20;;;1.80;;
36829;SDS011;22767;47.328;9.640;2022-10-26T17:06:29;8.48;;;2.00;;
36829;SDS011;22767;47.328;9.640;2022-10-26T17:09:17;5.75;;;1.90;;
36829;SDS011;22767;47.328;9.640;2022-10-26T17:12:03;4.07;;;2.13;;
36829;SDS011;22767;47.328;9.640;2022-10-26T17:14:50;6.00;;;1.90;;
36829;SDS011;22767;47.328;9.640;2022-10-26T17:17:37;4.68;;;2.80;;
36829;SDS011;22767;47.328;9.640;2022-10-26T17:20:23;8.02;;;2.92;;
36829;SDS011;22767;47.328;9.640;2022-10-26T17:23:10;10.48;;;3.10;;
36829;SDS011;22767;47.328;9.640;2022-10-26T17:26:01;6.85;;;2.67;;
36829;SDS011;22767;47.328;9.640;2022-10-26T17:28:51;10.98;;;3.33;;
36829;SDS011;22767;47.328;9.640;2022-10-26T17:31:38;9.27;;;2.88;;
36829;SDS011;22767;47.328;9.640;2022-10-26T17:34:25;5.63;;;2.33;;
36829;SDS011;22767;47.328;9.640;2022-10-26T17:37:11;6.22;;;2.88;;
36829;SDS011;22767;47.328;9.640;2022-10-26T17:39:58;7.00;;;3.70;;
36829;SDS011;22767;47.328;9.640;2022-10-26T17:42:45;17.77;;;7.80;;
36829;SDS011;22767;47.328;9.640;2022-10-26T17:45:34;7.43;;;3.33;;
36829;SDS011;22767;47.328;9.640;2022-10-26T17:48:20;10.57;;;3.47;;
36829;SDS011;22767;47.328;9.640;2022-10-26T17:51:10;15.50;;;6.28;;
36829;SDS011;22767;47.328;9.640;2022-10-26T17:53:57;12.80;;;5.35;;
36829;SDS011;22767;47.328;9.640;2022-10-26T17:56:45;7.32;;;3.95;;
36829;SDS011;22767;47.328;9.640;2022-10-26T17:59:32;15.57;;;5.22;;
36829;SDS011;22767;47.328;9.640;2022-10-26T18:02:19;7.10;;;4.15;;
36829;SDS011;22767;47.328;9.640;2022-10-26T18:05:06;9.73;;;3.47;;
36829;SDS011;22767;47.328;9.640;2022-10-26T18:07:53;9.85;;;3.17;;
36829;SDS011;22767;47.328;9.640;2022-10-26T18:10:45;9.70;;;3.28;;
36829;SDS011;22767;47.328;9.640;2022-10-26T18:16:19;12.60;;;4.97;;
36829;SDS011;22767;47.328;9.640;2022-10-26T18:19:07;7.95;;;3.67;;
36829;SDS011;22767;47.328;9.640;2022-10-26T18:21:54;11.45;;;3.58;;
36829;SDS011;22767;47.328;9.640;2022-10-26T18:24:40;8.40;;;4.15;;
36829;SDS011;22767;47.328;9.640;2022-10-26T18:27:28;9.43;;;4.68;;
36829;SDS011;22767;47.328;9.640;2022-10-26T18:30:15;12.82;;;6.10;;
36829;SDS011;22767;47.328;9.640;2022-10-26T18:33:02;8.18;;;3.88;;
36829;SDS011;22767;47.328;9.640;2022-10-26T18:35:49;9.70;;;3.17;;
36829;SDS011;22767;47.328;9.640;2022-10-26T18:38:36;7.07;;;2.85;;
36829;SDS011;22767;47.328;9.640;2022-10-26T18:41:24;13.43;;;3.85;;
36829;SDS011;22767;47.328;9.640;2022-10-26T18:44:11;10.88;;;2.90;;
36829;SDS011;22767;47.328;9.640;2022-10-26T18:46:58;8.80;;;3.35;;
36829;SDS011;22767;47.328;9.640;2022-10-26T18:49:45;11.05;;;2.65;;
36829;SDS011;22767;47.328;9.640;2022-10-26T18:52:31;10.40;;;2.83;;
36829;SDS011;22767;47.328;9.640;2022-10-26T18:55:18;10.75;;;2.83;;
36829;SDS011;22767;47.328;9.640;2022-10-26T18:58:05;13.82;;;3.33;;
36829;SDS011;22767;47.328;9.640;2022-10-26T19:01:02;10.38;;;2.63;;